Impacts TAF Board INFO
FOR SITUATIONAL AWARENESS. NOT TO BE USED FOR FLIGHT PLANNING PURPOSES.
IDs:

KJFK - New York/Kennedy Int, NY, US

Issued at 0230 UTC 20 Nov 2017
Updated at 0401 UTC 20 Nov 2017
Potential Impact None Slight Moderate High
Time<<20/17Z 20/18Z 20/19Z 20/20Z 20/21Z 20/22Z 20/23Z 21/00Z 21/01Z 21/02Z 21/03Z 21/04Z 21/05Z>>
Type PRVL PRVL PRVL PRVL PRVL PRVL PRVL PRVL PRVL PRVL PRVL PRVL PRVL
VIS >6 >6 >6 >6 >6 >6 >6 >6 >6 >6 >6 >6 >6
CIG -- -- -- -- -- -- -- -- -- -- -- -- --
Cover SCT SCT SCT SCT FEW FEW FEW FEW FEW FEW SKC SKC SKC
FltCat VFR VFR VFR VFR VFR VFR VFR VFR VFR VFR VFR VFR VFR
WX -- -- -- -- -- -- -- -- -- -- -- -- --
WDir 280 280 280 280 250 250 250 250 250 250 250 250 250
WSpd 19 19 19 19 17 17 17 17 17 17 14 14 14
WGst 28 28 28 28 23 23 23 23 23 23 -- -- --

Raw TAF
KJFK 200230Z 2003/2106 29014G22KT P6SM BKN060
  FM201300 28019G28KT P6SM SCT050
  FM202100 25017G23KT P6SM FEW050
  FM210300 25014KT P6SM SKC


METAR Board
Radar Display
Forecast Discussion

FOR SITUATIONAL AWARENESS. NOT TO BE USED FOR FLIGHT PLANNING PURPOSES.